CheckWX is a tool to help pilots better visualize weather data.  It is not intended as a substitute for an official pre-flight weather briefing.

12:23:26 UTC

EDHK METAR
Kiel-Holtenau Airport
Kiel, Germany
Current

33 mins ago

EDHK 221150Z 11015KT 9999 SCT021 04/M01 Q1040
Observed
Feb-22 @ 11:50 UTC
Wind
  • 110° at 15 KTS
Visibility
10,000+ meters
Flight Rules
VFR
Cloud Levels
  • Scattered at 2,100' AGL
Temperature
C / 39°F
Dewpoint
-1°C / 30°F
Humidity
70%
Altimeter
30.71" Hg
Pressure
1039.91 hPa
Previous

1 hour ago

EDHK 221120Z 11016KT 9999 SCT018 04/M01 Q1040
Observed
Feb-22 @ 11:20 UTC
Wind
  • 110° at 16 KTS
Visibility
10,000+ meters
Flight Rules
VFR
Cloud Levels
  • Scattered at 1,800' AGL
Temperature
C / 39°F
Dewpoint
-1°C / 30°F
Humidity
70%
Altimeter
30.71" Hg
Pressure
1039.91 hPa
Previous

2 hours ago

EDHK 221050Z 11015KT 9999 SCT017 04/00 Q1040
Observed
Feb-22 @ 10:50 UTC
Wind
  • 110° at 15 KTS
Visibility
10,000+ meters
Flight Rules
VFR
Cloud Levels
  • Scattered at 1,700' AGL
Temperature
C / 39°F
Dewpoint
C / 32°F
Humidity
75%
Altimeter
30.71" Hg
Pressure
1039.91 hPa